Time;durP1;ratioP1;P1;durP2;ratioP2;P2;SDS_P1;SDS_P2;PMS_P1;PMS_P2;Temp;Humidity;BMP_temperature;BMP_pressure;BME280_temperature;BME280_humidity;BME280_pressure;Samples;Min_cycle;Max_cycle;Signal;HPM_P1;HPM_P2
2023/10/11 00:00:40;;;;;;;9.48;5.43;;;;;;;16.09;77.87;101168.75;5042942;28;20154;-78
2023/10/11 00:03:32;;;;;;;7.95;5.10;;;;;;;16.10;77.85;101175.03;5054145;28;20536;-78
2023/10/11 00:05:59;;;;;;;8.90;4.75;;;;;;;16.11;77.70;101168.56;5055733;28;20087;-78
2023/10/11 00:08:27;;;;;;;7.47;4.95;;;;;;;16.08;77.62;101167.09;5051563;28;20100;-78
2023/10/11 00:10:53;;;;;;;9.02;5.30;;;;;;;16.09;77.16;101163.34;5054364;28;20114;-78
2023/10/11 00:13:22;;;;;;;8.98;5.20;;;;;;;16.12;77.00;101162.88;5050030;28;20037;-78
2023/10/11 00:15:49;;;;;;;7.55;5.18;;;;;;;16.09;77.11;101155.19;5059067;28;20147;-78
2023/10/11 00:18:28;;;;;;;10.65;5.32;;;;;;;16.03;77.32;101158.81;5048660;28;20047;-78
2023/10/11 00:20:56;;;;;;;10.05;5.30;;;;;;;16.02;77.59;101157.97;5052823;28;20104;-78
2023/10/11 00:23:23;;;;;;;11.07;5.07;;;;;;;16.05;77.69;101162.97;5051739;28;20025;-78
2023/10/11 00:25:53;;;;;;;8.60;4.80;;;;;;;16.00;77.74;101159.25;5052987;28;20040;-78
2023/10/11 00:28:23;;;;;;;12.55;5.65;;;;;;;15.98;77.75;101161.38;5059011;28;20029;-79
2023/10/11 00:30:51;;;;;;;8.95;4.82;;;;;;;16.06;77.37;101158.38;5057858;28;20032;-78
2023/10/11 00:33:16;;;;;;;7.97;4.85;;;;;;;16.13;76.81;101153.69;5060674;28;20033;-79
2023/10/11 00:35:47;;;;;;;8.55;4.80;;;;;;;16.06;77.10;101153.75;5063685;28;20086;-79
2023/10/11 00:38:18;;;;;;;9.52;5.15;;;;;;;16.08;77.09;101164.38;5070762;28;20107;-79
2023/10/11 00:40:48;;;;;;;12.80;5.55;;;;;;;15.98;77.48;101161.38;5047090;28;20127;-78
2023/10/11 00:43:16;;;;;;;10.38;5.28;;;;;;;15.93;77.82;101155.78;5053910;28;20037;-79
2023/10/11 00:45:41;;;;;;;8.93;5.10;;;;;;;16.06;76.99;101152.94;5052847;28;20037;-78
2023/10/11 00:48:10;;;;;;;7.43;5.03;;;;;;;16.00;77.29;101157.38;5039513;28;20048;-79
2023/10/11 00:50:36;;;;;;;8.30;4.82;;;;;;;15.99;77.12;101152.19;5052497;28;20031;-78
2023/10/11 00:53:01;;;;;;;8.75;5.10;;;;;;;16.03;77.00;101147.97;5038346;28;20116;-79
2023/10/11 00:55:29;;;;;;;12.32;5.63;;;;;;;16.02;76.96;101151.72;5055247;28;20031;-78
2023/10/11 00:57:57;;;;;;;10.52;5.28;;;;;;;15.95;77.00;101143.66;5053264;28;20025;-78
2023/10/11 01:00:23;;;;;;;8.50;5.20;;;;;;;15.96;77.05;101144.47;5033215;28;20075;-79
2023/10/11 01:02:50;;;;;;;8.25;5.10;;;;;;;16.00;77.05;101148.41;5053202;28;20162;-79
2023/10/11 01:05:19;;;;;;;9.75;5.18;;;;;;;15.99;76.77;101155.72;5051699;28;20036;-78
2023/10/11 01:07:44;;;;;;;10.02;5.20;;;;;;;15.98;77.24;101145.09;5046002;28;20025;-79
2023/10/11 01:10:10;;;;;;;9.88;5.13;;;;;;;15.96;77.21;101148.03;5054155;28;20033;-79
2023/10/11 01:12:35;;;;;;;9.10;5.07;;;;;;;15.99;77.19;101146.75;5051144;28;20037;-79
2023/10/11 01:15:01;;;;;;;8.25;5.13;;;;;;;15.96;77.09;101149.91;5050939;28;20038;-78
2023/10/11 01:17:26;;;;;;;8.55;5.47;;;;;;;15.94;77.67;101133.84;5051322;28;20025;-78
2023/10/11 01:19:52;;;;;;;7.88;5.07;;;;;;;15.93;77.52;101142.22;5054012;28;20036;-79
2023/10/11 01:22:21;;;;;;;7.38;4.90;;;;;;;15.92;77.19;101141.38;5050257;28;20025;-79
2023/10/11 01:24:47;;;;;;;8.43;5.10;;;;;;;15.94;77.54;101138.44;5040053;28;20074;-79
2023/10/11 01:27:16;;;;;;;9.50;5.40;;;;;;;15.90;77.65;101138.06;5063668;28;20037;-78
2023/10/11 01:29:42;;;;;;;9.32;5.28;;;;;;;15.88;77.94;101134.75;5050374;28;20032;-79
2023/10/11 01:32:07;;;;;;;12.63;5.72;;;;;;;15.88;78.28;101124.72;5040529;28;20100;-79
2023/10/11 01:34:32;;;;;;;7.32;4.85;;;;;;;15.90;78.24;101122.59;5055214;28;20424;-79
2023/10/11 01:37:01;;;;;;;9.93;5.35;;;;;;;15.87;78.56;101123.06;5060146;28;20048;-79
2023/10/11 01:39:26;;;;;;;8.73;5.70;;;;;;;15.82;78.66;101133.72;5049700;28;20469;-79
2023/10/11 01:41:58;;;;;;;9.93;5.70;;;;;;;15.82;78.68;101131.03;5057691;28;20035;-78
2023/10/11 01:44:23;;;;;;;9.68;5.75;;;;;;;15.83;78.82;101124.53;5029220;28;20029;-79
2023/10/11 01:46:49;;;;;;;9.65;5.93;;;;;;;15.77;79.06;101114.56;5058976;28;20116;-79
2023/10/11 01:49:14;;;;;;;14.05;6.35;;;;;;;15.84;78.87;101115.34;5052667;28;20033;-78
2023/10/11 01:51:41;;;;;;;10.70;6.18;;;;;;;15.79;79.16;101120.59;5054450;28;20132;-78
2023/10/11 01:54:06;;;;;;;9.48;5.80;;;;;;;15.68;79.68;101119.47;5049218;28;20078;-78
2023/10/11 01:56:32;;;;;;;12.02;6.32;;;;;;;15.67;79.66;101122.41;5061209;28;20048;-78
2023/10/11 01:59:01;;;;;;;11.38;6.13;;;;;;;15.73;79.31;101124.22;5049298;28;20139;-78
2023/10/11 02:01:28;;;;;;;10.18;6.05;;;;;;;15.66;79.56;101109.91;5050553;28;20564;-79
2023/10/11 02:03:58;;;;;;;11.95;6.47;;;;;;;15.70;79.42;101119.25;5051200;28;20036;-79
2023/10/11 02:06:24;;;;;;;9.98;5.90;;;;;;;15.72;79.51;101117.13;5049603;28;20079;-78
2023/10/11 02:08:50;;;;;;;9.95;5.55;;;;;;;15.69;79.44;101104.84;5050083;28;20037;-78
2023/10/11 02:11:16;;;;;;;10.15;5.72;;;;;;;15.69;79.45;101101.31;5049812;28;20059;-78
2023/10/11 02:13:44;;;;;;;11.02;5.95;;;;;;;15.67;79.50;101093.38;5048447;28;20029;-78
2023/10/11 02:16:11;;;;;;;10.27;5.97;;;;;;;15.63;79.51;101096.78;5050246;28;20127;-79
2023/10/11 02:18:38;;;;;;;9.73;5.90;;;;;;;15.61;79.59;101102.44;5049798;28;20021;-79
2023/10/11 02:21:07;;;;;;;12.80;5.90;;;;;;;15.57;79.66;101095.78;5048678;28;20143;-78
2023/10/11 02:23:37;;;;;;;8.00;5.88;;;;;;;15.57;79.44;101095.78;5053107;28;20029;-78
2023/10/11 02:26:04;;;;;;;13.20;5.88;;;;;;;15.51;79.89;101102.09;5051923;28;20116;-78
2023/10/11 02:28:30;;;;;;;8.93;5.95;;;;;;;15.52;79.70;101101.91;5037602;28;20136;-79
2023/10/11 02:30:56;;;;;;;12.15;5.85;;;;;;;15.51;80.03;101102.09;5038722;28;20059;-79
2023/10/11 02:33:22;;;;;;;12.07;6.03;;;;;;;15.48;79.92;101108.81;5038113;28;20029;-78
2023/10/11 02:35:56;;;;;;;9.68;5.90;;;;;;;15.50;79.69;101112.16;5049455;28;20070;-78
2023/10/11 02:38:23;;;;;;;11.02;5.75;;;;;;;15.48;79.88;101088.97;5051946;28;20044;-78
2023/10/11 02:40:57;;;;;;;10.75;6.30;;;;;;;15.48;79.84;101091.69;5062508;28;20433;-79
2023/10/11 02:43:24;;;;;;;9.65;5.82;;;;;;;15.49;79.51;101099.63;5046245;28;20074;-79
2023/10/11 02:45:50;;;;;;;9.15;5.25;;;;;;;15.49;79.54;101102.34;5051118;28;20020;-79
2023/10/11 02:48:19;;;;;;;8.70;6.00;;;;;;;15.48;79.76;101092.53;5044948;28;20025;-79
2023/10/11 02:50:47;;;;;;;8.48;5.68;;;;;;;15.45;79.66;101092.97;5043314;28;20052;-79
2023/10/11 02:53:22;;;;;;;11.00;5.85;;;;;;;15.43;79.77;101089.66;5038629;28;20087;-79
2023/10/11 02:55:57;;;;;;;10.85;6.13;;;;;;;15.33;80.12;101092.88;5050810;28;20028;-79
2023/10/11 02:58:24;;;;;;;9.65;6.07;;;;;;;15.31;80.42;101087.69;5041353;28;20025;-79
2023/10/11 03:00:56;;;;;;;8.05;5.97;;;;;;;15.34;80.37;101094.53;5046882;28;20071;-79
2023/10/11 03:03:26;;;;;;;10.73;5.60;;;;;;;15.35;80.47;101087.25;5050560;28;20033;-79
2023/10/11 03:05:52;;;;;;;12.00;6.05;;;;;;;15.30;80.13;101086.03;5047294;28;20021;-79
2023/10/11 03:08:19;;;;;;;10.55;5.57;;;;;;;15.26;80.65;101081.28;5038830;28;20018;-78
2023/10/11 03:10:52;;;;;;;9.40;5.95;;;;;;;15.27;80.64;101080.19;5048110;28;20456;-78
2023/10/11 03:13:25;;;;;;;10.68;6.55;;;;;;;15.19;80.71;101075.06;5048881;28;20453;-79
2023/10/11 03:15:57;;;;;;;11.75;5.70;;;;;;;15.20;80.76;101074.84;5051898;28;20470;-78
2023/10/11 03:18:32;;;;;;;8.90;6.38;;;;;;;15.16;81.17;101081.78;5041566;28;20021;-78
2023/10/11 03:21:07;;;;;;;9.32;5.93;;;;;;;15.12;81.26;101072.44;5048468;28;20052;-78
2023/10/11 03:23:46;;;;;;;10.25;6.25;;;;;;;15.04;81.49;101072.69;5065709;28;20028;-78
2023/10/11 03:26:51;;;;;;;9.95;6.47;;;;;;;14.99;81.60;101074.22;5061488;28;20010;-78
2023/10/11 03:29:17;;;;;;;9.75;6.15;;;;;;;14.98;81.34;101072.53;5032076;28;20106;-78
2023/10/11 03:31:43;;;;;;;11.00;6.68;;;;;;;14.94;81.45;101063.19;5053342;28;20119;-78
2023/10/11 03:34:11;;;;;;;8.82;6.38;;;;;;;14.89;81.87;101057.59;5050892;28;20078;-78
2023/10/11 03:36:43;;;;;;;17.50;6.82;;;;;;;14.84;81.95;101052.00;5046693;28;20033;-78
2023/10/11 03:39:11;;;;;;;13.13;6.75;;;;;;;14.76;82.18;101055.81;5052265;28;20028;-78
2023/10/11 03:41:44;;;;;;;10.80;6.72;;;;;;;14.67;82.61;101060.63;5044086;28;20512;-78
2023/10/11 03:44:09;;;;;;;10.50;6.93;;;;;;;14.68;82.54;101046.06;5047995;28;20094;-78
2023/10/11 03:46:38;;;;;;;12.02;7.22;;;;;;;14.64;82.90;101052.13;5068065;28;20025;-78
2023/10/11 03:49:35;;;;;;;13.73;6.90;;;;;;;14.63;82.66;101048.59;5059489;28;20051;-78
2023/10/11 03:51:58;;;;;;;12.43;6.85;;;;;;;14.60;82.94;101042.75;5047113;28;20075;-78
2023/10/11 03:54:24;;;;;;;14.05;7.32;;;;;;;14.52;83.17;101051.97;5057327;28;20025;-78
2023/10/11 03:56:55;;;;;;;12.40;7.30;;;;;;;14.53;82.90;101042.81;5048801;28;20469;-79
2023/10/11 03:59:21;;;;;;;12.48;7.22;;;;;;;14.49;83.02;101045.13;5070946;28;20021;-79
2023/10/11 04:01:49;;;;;;;11.43;7.00;;;;;;;14.49;83.03;101031.59;5056617;28;20125;-79
2023/10/11 04:04:16;;;;;;;10.60;7.00;;;;;;;14.40;83.37;101047.28;5049780;28;20135;-78
2023/10/11 04:06:41;;;;;;;10.77;6.35;;;;;;;14.33;83.95;101051.06;5048480;28;20020;-79
2023/10/11 04:09:21;;;;;;;10.95;7.15;;;;;;;14.30;83.84;101049.59;5042422;28;20319;-75
2023/10/11 04:11:57;;;;;;;8.65;6.43;;;;;;;14.28;84.05;101040.06;5045762;28;20051;-82
2023/10/11 04:14:39;;;;;;;10.80;6.38;;;;;;;14.32;83.71;101041.28;5037721;28;20049;-80
2023/10/11 04:17:06;;;;;;;9.77;6.25;;;;;;;14.32;83.74;101027.75;5040931;28;20032;-77
2023/10/11 04:19:32;;;;;;;10.65;5.78;;;;;;;14.23;83.98;101032.59;5045495;28;20029;-77
2023/10/11 04:21:59;;;;;;;10.32;6.03;;;;;;;14.24;83.96;101029.66;5044160;28;20177;-77
2023/10/11 04:24:25;;;;;;;9.95;6.00;;;;;;;14.24;83.90;101045.91;5040026;28;20061;-77
2023/10/11 04:27:45;;;;;;;9.85;6.03;;;;;;;14.24;83.94;101036.94;5054066;28;20345;-77
2023/10/11 04:29:41;;;;;;;10.48;6.10;;;;;;;14.17;84.18;101030.72;5050165;28;20048;-77
2023/10/11 04:32:09;;;;;;;10.73;6.20;;;;;;;14.19;83.75;101031.34;5060242;28;20036;-77
2023/10/11 04:34:38;;;;;;;12.18;6.38;;;;;;;14.16;83.96;101038.03;5052521;28;20048;-77
2023/10/11 04:37:16;;;;;;;10.02;6.25;;;;;;;14.10;84.52;101041.59;5058485;28;20772;-77
2023/10/11 04:39:50;;;;;;;11.98;6.53;;;;;;;14.09;84.27;101035.38;5058469;28;20024;-77
2023/10/11 04:42:17;;;;;;;12.15;6.15;;;;;;;14.16;83.93;101027.22;5045581;28;20025;-78
2023/10/11 04:44:42;;;;;;;10.43;6.22;;;;;;;14.16;84.04;101034.47;5052876;28;20590;-77
2023/10/11 04:47:10;;;;;;;12.30;6.43;;;;;;;14.09;84.25;101046.19;5054501;28;20024;-77
2023/10/11 04:49:36;;;;;;;10.45;6.53;;;;;;;14.09;84.30;101040.78;5035013;28;20029;-77
2023/10/11 04:52:10;;;;;;;9.60;5.90;;;;;;;14.07;84.39;101034.75;5055215;28;20029;-77
2023/10/11 04:54:53;;;;;;;10.73;6.68;;;;;;;14.04;84.49;101032.47;5060305;28;20025;-78
2023/10/11 04:57:20;;;;;;;13.77;7.00;;;;;;;13.98;84.69;101030.63;5048608;22;20112;-78
2023/10/11 04:59:46;;;;;;;13.45;6.50;;;;;;;13.95;84.69;101041.88;5022687;28;20029;-77
2023/10/11 05:02:17;;;;;;;9.25;6.75;;;;;;;13.95;84.92;101041.88;5031091;28;20029;-77
2023/10/11 05:04:44;;;;;;;8.77;6.10;;;;;;;13.97;84.50;101045.19;5037808;28;20423;-77
2023/10/11 05:07:10;;;;;;;10.55;6.55;;;;;;;13.90;84.94;101039.00;5038604;28;20052;-77
2023/10/11 05:09:39;;;;;;;12.88;6.78;;;;;;;13.90;84.87;101041.69;5034751;28;20021;-78
2023/10/11 05:12:25;;;;;;;14.90;6.72;;;;;;;13.90;85.04;101057.94;5037806;28;20136;-78
2023/10/11 05:18:00;;;;;;;11.63;6.22;;;;;;;13.82;85.42;101060.88;5029340;28;20030;-78
2023/10/11 05:32:49;;;;;;;11.00;7.03;;;;;;;13.76;86.14;101028.22;5022350;28;20348;-77
2023/10/11 05:51:26;;;;;;;9.43;6.80;;;;;;;13.69;86.60;101042.78;5025433;28;20068;-77
2023/10/11 05:53:55;;;;;;;11.43;7.38;;;;;;;13.66;86.91;101054.88;5025076;28;20034;-77
2023/10/11 05:56:20;;;;;;;15.85;6.90;;;;;;;13.68;86.89;101051.97;5031721;28;20111;-77
2023/10/11 05:58:50;;;;;;;12.30;7.10;;;;;;;13.64;87.06;101051.56;5031388;28;20022;-77
2023/10/11 06:01:17;;;;;;;13.45;6.88;;;;;;;13.69;86.86;101057.16;5019966;28;20045;-77
2023/10/11 06:03:48;;;;;;;11.13;6.93;;;;;;;13.73;86.54;101055.72;5021574;28;20396;-77
2023/10/11 06:06:37;;;;;;;9.57;6.75;;;;;;;13.66;87.14;101062.19;5031175;28;20083;-77
2023/10/11 06:09:05;;;;;;;10.57;6.95;;;;;;;13.70;87.11;101066.09;5031962;28;20080;-77
2023/10/11 06:11:36;;;;;;;10.70;6.40;;;;;;;13.80;86.47;101048.38;5020227;28;20029;-77
2023/10/11 06:14:05;;;;;;;12.43;7.40;;;;;;;13.81;86.65;101057.34;5017868;28;20036;-77
2023/10/11 06:16:37;;;;;;;15.60;6.90;;;;;;;13.83;86.53;101076.06;5032431;28;20032;-77
2023/10/11 06:19:25;;;;;;;11.95;7.18;;;;;;;13.91;86.23;101068.53;5026113;28;20191;-77
2023/10/11 06:21:58;;;;;;;10.65;6.63;;;;;;;14.02;85.81;101064.34;5031404;28;20044;-77
2023/10/11 06:24:33;;;;;;;12.55;6.82;;;;;;;14.12;85.22;101060.34;5032655;28;20029;-77
2023/10/11 06:29:53;;;;;;;12.80;7.03;;;;;;;14.34;84.14;101044.59;4989219;28;20180;-77
2023/10/11 06:32:22;;;;;;;15.00;7.53;;;;;;;14.56;83.10;101031.53;5033523;28;20044;-78
2023/10/11 06:34:48;;;;;;;10.75;6.95;;;;;;;14.70;82.46;101035.03;5015991;28;20110;-77
2023/10/11 06:37:18;;;;;;;12.13;6.88;;;;;;;14.86;82.01;101033.63;5030113;28;20037;-77
2023/10/11 06:42:31;;;;;;;11.52;7.82;;;;;;;15.07;80.18;101047.84;5031323;28;20060;-77
2023/10/11 06:44:57;;;;;;;13.35;6.72;;;;;;;15.33;79.38;101049.47;5031527;28;20017;-78
2023/10/11 06:47:24;;;;;;;14.70;7.32;;;;;;;15.63;78.44;101047.94;5031542;28;20379;-77
2023/10/11 06:49:54;;;;;;;12.38;7.03;;;;;;;15.99;76.66;101040.84;5030898;28;20053;-77
2023/10/11 06:52:19;;;;;;;10.43;6.65;;;;;;;16.26;75.18;101054.06;5029808;28;20438;-77
2023/10/11 06:54:49;;;;;;;11.02;7.47;;;;;;;16.41;74.24;101046.34;5031484;28;20032;-77
2023/10/11 06:57:21;;;;;;;10.75;7.18;;;;;;;16.45;73.84;101052.94;5030259;28;20128;-77
2023/10/11 06:59:56;;;;;;;14.93;7.40;;;;;;;16.48;73.78;101059.84;5031582;28;20028;-77
2023/10/11 07:02:31;;;;;;;9.35;7.10;;;;;;;16.41;74.55;101068.09;5031125;28;20415;-78
2023/10/11 07:05:00;;;;;;;14.02;6.88;;;;;;;16.51;74.44;101062.91;5031348;28;20040;-77
2023/10/11 07:07:26;;;;;;;13.07;7.28;;;;;;;16.87;72.53;101075.75;5022299;28;20034;-78
2023/10/11 07:09:57;;;;;;;11.25;7.63;;;;;;;16.83;72.84;101080.84;5023478;28;20112;-77
2023/10/11 07:12:46;;;;;;;10.48;6.63;;;;;;;17.34;71.59;101080.44;5017574;28;20033;-77
2023/10/11 07:15:09;;;;;;;11.48;7.18;;;;;;;17.37;70.85;101075.34;5029670;28;20033;-78
2023/10/11 07:17:35;;;;;;;10.65;7.22;;;;;;;17.66;69.21;101090.94;5031527;28;20040;-77
2023/10/11 07:20:01;;;;;;;10.13;6.80;;;;;;;18.09;68.33;101078.78;5031003;28;20033;-78
2023/10/11 07:22:26;;;;;;;11.65;7.60;;;;;;;18.39;67.06;101076.91;5017257;28;20087;-77
2023/10/11 07:24:56;;;;;;;11.40;7.50;;;;;;;18.70;66.20;101075.56;5024198;28;20032;-77
2023/10/11 07:27:37;;;;;;;12.77;6.78;;;;;;;18.80;65.43;101091.28;5030336;28;20462;-78
2023/10/11 07:30:06;;;;;;;11.55;7.00;;;;;;;18.45;66.18;101089.56;5029926;28;20029;-77
2023/10/11 07:32:36;;;;;;;10.93;7.40;;;;;;;18.84;65.60;101097.91;5028720;28;20176;-77
2023/10/11 07:35:05;;;;;;;12.50;7.25;;;;;;;19.18;64.54;101095.22;5030181;28;20030;-78
2023/10/11 07:37:30;;;;;;;11.77;6.70;;;;;;;18.76;66.11;101117.38;5019778;28;20034;-77
2023/10/11 07:40:00;;;;;;;11.88;7.28;;;;;;;18.69;66.18;101128.47;5028327;28;20021;-78
2023/10/11 07:42:26;;;;;;;10.85;7.28;;;;;;;19.25;64.63;101138.72;5029192;28;20125;-76
2023/10/11 07:44:51;;;;;;;14.65;7.03;;;;;;;19.22;64.84;101126.41;5029185;28;20029;-76
2023/10/11 07:47:18;;;;;;;11.13;7.28;;;;;;;19.13;64.68;101125.16;5030770;28;20031;-76
2023/10/11 07:49:43;;;;;;;11.00;6.80;;;;;;;19.31;65.18;101123.25;5030044;28;20068;-77
2023/10/11 07:52:09;;;;;;;15.93;7.53;;;;;;;19.34;64.60;101125.47;5030514;28;20021;-76
2023/10/11 07:54:40;;;;;;;11.65;7.72;;;;;;;19.70;63.92;101115.91;5030419;28;20013;-76
2023/10/11 07:57:12;;;;;;;13.05;7.60;;;;;;;18.83;66.29;101112.63;5030092;28;20101;-77
2023/10/11 07:59:39;;;;;;;11.95;7.20;;;;;;;19.49;64.65;101100.31;5019330;28;20113;-77
2023/10/11 08:02:08;;;;;;;11.55;7.28;;;;;;;19.59;64.20;101099.66;5034335;28;20033;-77
2023/10/11 08:04:47;;;;;;;12.15;7.47;;;;;;;18.92;66.20;101111.13;5024266;28;20030;-77
2023/10/11 08:07:16;;;;;;;13.43;7.63;;;;;;;18.56;68.71;101096.03;5035106;28;20096;-77
2023/10/11 08:09:45;;;;;;;12.25;8.30;;;;;;;18.32;69.46;101096.97;5030067;28;20025;-76
2023/10/11 08:12:14;;;;;;;14.40;7.60;;;;;;;17.91;71.09;101095.31;5023554;28;20474;-76
2023/10/11 08:14:45;;;;;;;13.57;7.47;;;;;;;18.08;71.77;101101.69;5011314;28;20375;-76
2023/10/11 08:17:12;;;;;;;13.65;8.30;;;;;;;18.16;71.29;101092.31;5028964;28;20026;-76
2023/10/11 08:19:38;;;;;;;14.02;7.85;;;;;;;18.24;71.71;101096.53;5020043;28;20113;-76
2023/10/11 08:22:09;;;;;;;14.63;7.72;;;;;;;18.60;70.26;101108.94;5013335;28;20474;-76
2023/10/11 08:24:45;;;;;;;13.25;7.47;;;;;;;19.10;68.84;101106.53;5010391;28;20030;-76
2023/10/11 08:27:12;;;;;;;16.48;7.60;;;;;;;19.07;68.04;101105.13;5014637;28;20086;-76
2023/10/11 08:29:38;;;;;;;16.02;8.05;;;;;;;18.82;68.97;101105.50;5030342;28;20432;-76
2023/10/11 08:32:06;;;;;;;25.38;9.30;;;;;;;19.50;66.62;101105.53;5030019;28;20556;-76
2023/10/11 08:34:31;;;;;;;14.02;8.13;;;;;;;18.99;68.39;101100.09;5041308;28;20014;-76
2023/10/11 08:36:57;;;;;;;12.38;7.43;;;;;;;19.41;67.31;101100.72;5044036;28;20424;-76
2023/10/11 08:39:35;;;;;;;14.27;7.72;;;;;;;19.81;66.01;101089.53;5033186;28;20113;-77
2023/10/11 08:42:09;;;;;;;13.38;7.85;;;;;;;20.11;64.19;101091.06;5024097;28;20029;-76
2023/10/11 08:44:34;;;;;;;13.57;8.20;;;;;;;19.87;64.97;101089.63;5030470;28;20033;-76
2023/10/11 08:47:03;;;;;;;13.00;8.35;;;;;;;20.13;64.92;101094.34;5023209;28;20018;-77
2023/10/11 08:49:28;;;;;;;14.40;7.60;;;;;;;20.38;64.07;101087.50;5025826;28;20030;-76
2023/10/11 08:51:57;;;;;;;14.18;7.53;;;;;;;21.43;61.15;101090.03;5024415;28;20381;-77
2023/10/11 08:54:25;;;;;;;13.68;8.07;;;;;;;21.55;60.18;101095.31;5029070;28;20124;-76
2023/10/11 08:56:57;;;;;;;12.85;7.57;;;;;;;21.86;58.98;101093.59;5024447;28;20053;-76
2023/10/11 08:59:25;;;;;;;11.50;7.35;;;;;;;21.75;59.23;101100.94;5031553;28;20548;-76
2023/10/11 09:01:59;;;;;;;13.23;7.97;;;;;;;21.55;59.55;101090.66;5034073;28;20104;-78
2023/10/11 09:04:27;;;;;;;11.85;8.02;;;;;;;22.24;57.59;101093.47;5021422;28;20032;-75
2023/10/11 09:06:57;;;;;;;12.27;7.05;;;;;;;22.28;57.98;101111.03;5032393;28;20338;-75
2023/10/11 09:09:39;;;;;;;14.55;8.05;;;;;;;22.61;56.92;101119.91;5023042;28;20242;-78
2023/10/11 09:12:22;;;;;;;14.00;7.53;;;;;;;20.95;61.13;101112.69;5034881;28;20068;-78
2023/10/11 09:14:58;;;;;;;13.35;7.70;;;;;;;20.33;64.42;101105.78;5036636;28;20471;-78
2023/10/11 09:17:25;;;;;;;14.15;8.60;;;;;;;20.07;65.77;101102.72;5030555;28;20422;-76
2023/10/11 09:19:51;;;;;;;14.10;8.98;;;;;;;19.36;68.47;101096.03;5027604;28;20025;-77
2023/10/11 09:22:20;;;;;;;15.02;8.70;;;;;;;19.59;68.52;101102.38;5031827;28;20036;-77
2023/10/11 09:24:45;;;;;;;17.25;8.70;;;;;;;20.14;66.54;101112.38;5033287;28;20075;-77
2023/10/11 09:29:48;;;;;;;16.70;9.02;;;;;;;19.05;71.46;101123.66;5020100;28;20121;-77
2023/10/11 09:32:19;;;;;;;16.33;9.02;;;;;;;18.77;73.01;101124.50;5033127;28;20033;-77
2023/10/11 09:34:45;;;;;;;13.13;8.07;;;;;;;18.94;73.35;101130.84;5017755;28;20036;-77
2023/10/11 09:37:13;;;;;;;18.13;8.95;;;;;;;19.03;72.67;101138.63;5032647;28;20029;-77
2023/10/11 09:39:40;;;;;;;15.68;9.15;;;;;;;18.58;74.83;101148.44;5033611;28;20041;-77
2023/10/11 09:42:13;;;;;;;15.32;9.60;;;;;;;18.38;76.23;101152.41;5024319;28;20022;-77
2023/10/11 09:44:44;;;;;;;14.30;9.27;;;;;;;18.32;76.74;101140.59;5030700;28;20444;-77
2023/10/11 09:47:19;;;;;;;15.63;10.05;;;;;;;18.23;77.74;101131.13;5035907;28;20111;-77
2023/10/11 09:49:46;;;;;;;17.73;9.73;;;;;;;18.42;77.29;101120.88;5033398;28;20120;-77
2023/10/11 09:52:16;;;;;;;13.75;10.00;;;;;;;18.92;75.78;101119.31;5033629;28;20033;-77
2023/10/11 09:54:41;;;;;;;18.15;10.27;;;;;;;19.11;74.67;101110.09;5032915;28;20083;-77
2023/10/11 09:57:50;;;;;;;18.27;10.50;;;;;;;19.13;75.33;101102.50;5028843;28;20053;-77
2023/10/11 10:00:34;;;;;;;14.80;9.90;;;;;;;19.64;73.30;101107.88;5019269;28;20033;-77
2023/10/11 10:02:59;;;;;;;13.38;9.27;;;;;;;19.92;72.64;101104.19;5001740;28;20057;-77
2023/10/11 10:05:30;;;;;;;13.30;9.45;;;;;;;20.04;71.43;101131.41;5016834;28;20467;-77
2023/10/11 10:07:58;;;;;;;14.27;9.30;;;;;;;19.69;72.77;101146.22;5033517;28;20064;-77
2023/10/11 10:10:26;;;;;;;16.52;9.50;;;;;;;19.38;73.95;101141.09;4999443;28;20038;-77
2023/10/11 10:12:54;;;;;;;18.33;10.85;;;;;;;18.55;77.30;101147.00;5023992;28;20033;-77
2023/10/11 10:15:23;;;;;;;17.75;10.93;;;;;;;18.57;77.98;101152.22;5032298;28;20036;-76
2023/10/11 10:17:57;;;;;;;14.18;10.25;;;;;;;18.84;77.40;101136.09;5029247;28;20057;-76
2023/10/11 10:20:43;;;;;;;14.35;10.30;;;;;;;18.64;77.75;101142.00;5031314;28;20029;-76
2023/10/11 10:23:14;;;;;;;;;;;;;;;18.46;79.25;101173.81;5034421;28;20029;-77
2023/10/11 10:25:46;;;;;;;16.40;10.57;;;;;;;18.36;80.22;101162.72;5025700;28;19913;-77
2023/10/11 10:28:34;;;;;;;16.50;10.32;;;;;;;18.24;80.68;101170.94;5027224;28;20033;-77
2023/10/11 10:31:12;;;;;;;13.30;10.95;;;;;;;18.07;82.29;101178.19;5022383;28;20026;-76
2023/10/11 10:33:38;;;;;;;18.38;11.63;;;;;;;17.92;83.09;101178.66;5029947;28;20490;-76
2023/10/11 10:36:19;;;;;;;15.80;11.13;;;;;;;18.12;83.08;101190.03;5031613;28;20029;-77
2023/10/11 10:38:59;;;;;;;21.50;11.98;;;;;;;17.78;84.20;101162.56;5020288;28;20045;-77
2023/10/11 10:41:30;;;;;;;21.95;12.48;;;;;;;17.75;84.99;101184.00;5031045;28;20029;-77
2023/10/11 10:44:12;;;;;;;16.98;11.88;;;;;;;17.73;85.92;101182.34;5031980;28;20107;-77
2023/10/11 10:46:51;;;;;;;18.88;11.60;;;;;;;17.79;85.43;101174.28;5026837;28;20017;-77
2023/10/11 10:49:17;;;;;;;19.40;12.55;;;;;;;17.49;87.18;101169.78;5027135;28;20111;-76
2023/10/11 10:51:47;;;;;;;18.92;12.35;;;;;;;17.42;87.98;101169.88;5031822;28;20026;-78
2023/10/11 10:54:21;;;;;;;16.65;12.43;;;;;;;17.52;87.77;101172.03;5030665;28;20127;-77
2023/10/11 10:56:47;;;;;;;22.00;12.63;;;;;;;17.50;88.14;101166.84;5028504;28;20072;-76
2023/10/11 10:59:14;;;;;;;19.15;13.00;;;;;;;17.43;88.40;101166.94;5031088;28;20026;-76
2023/10/11 11:01:39;;;;;;;19.60;13.30;;;;;;;17.28;89.75;101166.56;5018753;28;20032;-78
2023/10/11 11:04:07;;;;;;;17.85;12.73;;;;;;;17.47;89.36;101177.38;5018772;28;20051;-76
2023/10/11 11:06:38;;;;;;;20.30;13.15;;;;;;;17.49;89.63;101176.06;5031264;28;20389;-77
2023/10/11 11:09:05;;;;;;;20.33;13.60;;;;;;;17.35;89.74;101180.88;5031138;28;20108;-76
2023/10/11 11:11:35;;;;;;;23.08;13.82;;;;;;;17.21;91.07;101182.16;5030868;28;20091;-76
2023/10/11 11:14:07;;;;;;;20.30;14.07;;;;;;;17.21;91.36;101179.44;5024076;28;20026;-76
2023/10/11 11:16:33;;;;;;;21.38;14.00;;;;;;;17.28;90.79;101177.47;5023666;28;20033;-76
2023/10/11 11:19:08;;;;;;;19.67;13.85;;;;;;;17.24;91.73;101166.19;5017611;28;20030;-76
2023/10/11 11:21:41;;;;;;;23.00;13.93;;;;;;;17.29;92.11;101165.50;5009183;28;20026;-76
2023/10/11 11:24:20;;;;;;;23.48;14.77;;;;;;;17.39;91.67;101157.59;5018896;28;20033;-76
2023/10/11 11:26:46;;;;;;;25.35;14.55;;;;;;;17.40;91.22;101161.97;5029832;28;20018;-76
2023/10/11 11:29:16;;;;;;;25.60;15.10;;;;;;;17.33;91.55;101168.59;5030508;28;20032;-76
2023/10/11 11:31:51;;;;;;;21.25;15.52;;;;;;;17.26;92.09;101150.47;5019433;28;20074;-77
2023/10/11 11:34:26;;;;;;;21.70;15.13;;;;;;;17.28;92.32;101140.19;5021704;28;20044;-76
2023/10/11 11:37:01;;;;;;;24.00;15.15;;;;;;;17.29;92.21;101138.31;5024978;28;20030;-77
2023/10/11 11:41:55;;;;;;;23.55;15.50;;;;;;;17.43;91.76;101123.41;5023209;28;20102;-77
2023/10/11 11:44:21;;;;;;;23.80;15.48;;;;;;;17.72;90.53;101114.50;5024785;28;20090;-76
2023/10/11 11:46:51;;;;;;;22.73;14.57;;;;;;;17.70;90.29;101097.59;5028348;28;20430;-77
2023/10/11 11:49:21;;;;;;;21.58;15.00;;;;;;;17.67;90.21;101079.00;5029675;28;20041;-76
2023/10/11 11:51:50;;;;;;;26.48;15.68;;;;;;;17.76;89.52;101098.53;5030984;28;20132;-76
2023/10/11 11:54:19;;;;;;;23.80;15.80;;;;;;;17.58;90.67;101092.16;5030059;28;20052;-76
2023/10/11 11:56:45;;;;;;;21.10;14.95;;;;;;;17.74;90.00;101096.00;5028983;28;20037;-76
2023/10/11 11:59:17;;;;;;;25.23;15.43;;;;;;;17.76;90.09;101093.06;5030228;28;20033;-76
2023/10/11 12:01:53;;;;;;;24.10;15.02;;;;;;;17.84;89.51;101084.53;5029402;28;20083;-76
2023/10/11 12:04:21;;;;;;;24.42;15.38;;;;;;;17.68;90.25;101081.47;5016513;28;20481;-76
2023/10/11 12:06:47;;;;;;;25.08;15.95;;;;;;;17.68;90.44;101065.13;5030455;28;20051;-77
2023/10/11 12:09:17;;;;;;;21.48;15.10;;;;;;;17.86;89.73;101083.22;5030289;28;20040;-77
2023/10/11 12:11:45;;;;;;;21.08;15.15;;;;;;;17.93;89.05;101072.19;5028694;28;20026;-77